createdAt,value
2022-10-05T00:00:58.121Z,8.15
2022-10-05T00:03:27.031Z,7.82
2022-10-05T00:05:55.237Z,9.73
2022-10-05T00:08:24.681Z,8.00
2022-10-05T00:10:53.228Z,7.45
2022-10-05T00:13:22.043Z,7.20
2022-10-05T00:15:52.366Z,7.72
2022-10-05T00:18:23.860Z,6.88
2022-10-05T00:20:51.850Z,7.53
2022-10-05T00:23:22.277Z,6.55
2022-10-05T00:25:50.579Z,6.55
2022-10-05T00:28:30.454Z,8.15
2022-10-05T00:30:59.896Z,6.07
2022-10-05T00:33:28.187Z,6.45
2022-10-05T00:35:56.221Z,6.97
2022-10-05T00:38:24.785Z,6.78
2022-10-05T00:41:06.627Z,6.43
2022-10-05T00:43:45.497Z,6.38
2022-10-05T00:46:38.657Z,7.63
2022-10-05T00:49:37.351Z,6.95
2022-10-05T00:52:26.949Z,8.90
2022-10-05T00:55:15.426Z,7.32
2022-10-05T00:58:11.130Z,6.70
2022-10-05T01:00:52.534Z,7.07
2022-10-05T01:03:30.529Z,6.20
2022-10-05T01:06:05.021Z,6.00
2022-10-05T01:11:14.747Z,5.53
2022-10-05T01:13:49.480Z,4.90
2022-10-05T01:16:27.084Z,7.97
2022-10-05T01:19:06.166Z,4.75
2022-10-05T01:21:45.217Z,5.20
2022-10-05T01:24:17.898Z,6.00
2022-10-05T01:27:06.330Z,6.50
2022-10-05T01:29:41.373Z,5.07
2022-10-05T01:32:24.096Z,6.00
2022-10-05T01:35:13.880Z,6.50
2022-10-05T01:37:48.135Z,6.10
2022-10-05T01:40:45.067Z,9.55
2022-10-05T01:43:16.378Z,5.85
2022-10-05T01:46:22.389Z,5.88
2022-10-05T01:49:15.076Z,9.18
2022-10-05T01:52:01.711Z,5.93
2022-10-05T01:54:44.268Z,5.70
2022-10-05T01:57:21.801Z,8.63
2022-10-05T02:00:06.731Z,6.50
2022-10-05T02:03:06.537Z,8.90
2022-10-05T02:05:41.897Z,11.13
2022-10-05T02:08:39.437Z,8.10
2022-10-05T02:11:10.319Z,6.45
2022-10-05T02:14:11.813Z,7.97
2022-10-05T02:16:48.732Z,6.78
2022-10-05T02:19:29.735Z,7.05
2022-10-05T02:22:05.189Z,7.15
2022-10-05T02:24:47.176Z,6.63
2022-10-05T02:27:17.765Z,8.55
2022-10-05T02:29:45.986Z,9.82
2022-10-05T02:32:21.555Z,7.90
2022-10-05T02:34:50.126Z,6.82
2022-10-05T02:37:54.602Z,8.35
2022-10-05T02:40:47.898Z,7.50
2022-10-05T02:43:43.617Z,6.82
2022-10-05T02:46:11.736Z,8.45
2022-10-05T02:48:56.275Z,8.13
2022-10-05T02:51:49.465Z,9.57
2022-10-05T02:54:35.352Z,12.27
2022-10-05T02:57:14.354Z,20.27
2022-10-05T02:59:58.556Z,10.70
2022-10-05T03:02:50.398Z,8.52
2022-10-05T03:05:26.176Z,9.60
2022-10-05T03:08:02.382Z,11.40
2022-10-05T03:10:50.705Z,9.30
2022-10-05T03:13:25.913Z,10.60
2022-10-05T03:16:10.060Z,9.77
2022-10-05T03:18:56.481Z,10.68
2022-10-05T03:21:35.706Z,9.02
2022-10-05T03:24:22.561Z,9.95
2022-10-05T03:29:41.423Z,8.85
2022-10-05T03:32:33.593Z,9.00
2022-10-05T03:35:26.768Z,8.20
2022-10-05T03:38:09.126Z,6.90
2022-10-05T03:40:47.869Z,8.57
2022-10-05T03:43:52.524Z,7.80
2022-10-05T03:46:51.750Z,10.07
2022-10-05T03:49:35.212Z,9.13
2022-10-05T03:52:25.048Z,8.98
2022-10-05T03:55:00.259Z,8.57
2022-10-05T03:57:29.929Z,9.43
2022-10-05T04:00:18.188Z,10.48
2022-10-05T04:02:56.259Z,12.95
2022-10-05T04:05:47.747Z,8.05
2022-10-05T04:08:40.038Z,8.02
2022-10-05T04:11:12.761Z,7.80
2022-10-05T04:13:49.676Z,10.95
2022-10-05T04:16:21.557Z,8.80
2022-10-05T04:19:02.990Z,8.50
2022-10-05T04:21:48.244Z,9.43
2022-10-05T04:24:29.025Z,13.18
2022-10-05T04:27:01.102Z,12.73
2022-10-05T04:29:51.019Z,10.95
2022-10-05T04:32:26.585Z,10.75
2022-10-05T04:35:20.578Z,9.40
2022-10-05T04:38:08.456Z,9.35
2022-10-05T04:41:00.859Z,10.52
2022-10-05T04:44:00.495Z,10.07
2022-10-05T04:46:45.711Z,12.15
2022-10-05T04:49:28.967Z,8.23
2022-10-05T04:52:25.283Z,10.48
2022-10-05T04:55:15.880Z,11.63
2022-10-05T04:58:25.276Z,7.45
2022-10-05T05:01:29.811Z,9.27
2022-10-05T05:04:36.776Z,9.93
2022-10-05T05:07:56.095Z,8.25
2022-10-05T05:10:49.110Z,7.80
2022-10-05T05:14:07.608Z,8.82
2022-10-05T05:16:45.061Z,10.30
2022-10-05T05:19:39.027Z,6.25
2022-10-05T05:22:18.748Z,8.32
2022-10-05T05:24:49.082Z,10.02
2022-10-05T05:27:42.415Z,6.15
2022-10-05T05:30:20.318Z,5.68
2022-10-05T05:32:53.318Z,8.23
2022-10-05T05:35:33.246Z,8.00
2022-10-05T05:38:19.760Z,11.02
2022-10-05T05:40:56.360Z,6.43
2022-10-05T05:43:53.344Z,7.30
2022-10-05T05:50:02.936Z,8.68
2022-10-05T05:52:42.017Z,6.03
2022-10-05T05:55:33.429Z,7.25
2022-10-05T05:58:25.536Z,5.70
2022-10-05T06:00:54.392Z,4.72
2022-10-05T06:03:38.243Z,6.10
2022-10-05T06:06:13.656Z,8.70
2022-10-05T06:08:50.513Z,5.97
2022-10-05T06:11:48.824Z,8.82
2022-10-05T06:14:26.142Z,6.13
2022-10-05T06:17:02.291Z,7.40
2022-10-05T06:19:30.178Z,4.78
2022-10-05T06:22:07.238Z,8.20
2022-10-05T06:24:57.863Z,7.45
2022-10-05T06:27:26.857Z,7.03
2022-10-05T06:30:13.668Z,8.00
2022-10-05T06:32:51.398Z,8.48
2022-10-05T06:35:39.255Z,9.43
2022-10-05T06:38:35.194Z,10.63
2022-10-05T06:41:40.946Z,10.18
2022-10-05T06:44:16.286Z,9.07
2022-10-05T06:46:59.316Z,10.07
2022-10-05T06:49:42.702Z,7.35
2022-10-05T06:52:45.554Z,12.02
2022-10-05T06:55:16.500Z,6.47
2022-10-05T06:58:21.904Z,8.18
2022-10-05T07:01:11.475Z,8.27
2022-10-05T07:04:03.941Z,6.90
2022-10-05T07:06:38.624Z,7.22
2022-10-05T07:09:31.645Z,6.90
2022-10-05T07:12:34.588Z,9.60
2022-10-05T07:15:40.852Z,9.40
2022-10-05T07:18:46.237Z,7.13
2022-10-05T07:21:59.185Z,12.35
2022-10-05T07:24:35.265Z,8.73
2022-10-05T07:27:18.376Z,12.20
2022-10-05T07:30:04.796Z,6.32
2022-10-05T07:32:55.485Z,7.35
2022-10-05T07:36:08.239Z,7.03
2022-10-05T07:38:48.545Z,7.68
2022-10-05T07:41:31.132Z,7.30
2022-10-05T07:44:16.594Z,9.55
2022-10-05T07:46:52.390Z,9.88
2022-10-05T07:49:32.778Z,9.60
2022-10-05T07:52:37.530Z,11.15
2022-10-05T07:55:25.475Z,5.30
2022-10-05T07:58:00.113Z,9.18
2022-10-05T08:00:47.396Z,6.05
2022-10-05T08:03:22.333Z,6.32
2022-10-05T08:05:51.301Z,7.75
2022-10-05T08:08:28.324Z,6.70
2022-10-05T08:11:05.133Z,6.10
2022-10-05T08:13:39.621Z,7.65
2022-10-05T08:16:13.639Z,7.05
2022-10-05T08:18:57.254Z,7.30
2022-10-05T08:21:44.719Z,10.48
2022-10-05T08:24:43.004Z,6.93
2022-10-05T08:27:29.392Z,7.68
2022-10-05T08:30:03.466Z,7.65
2022-10-05T08:32:37.387Z,7.72
2022-10-05T08:35:34.439Z,11.05
2022-10-05T08:38:03.793Z,8.18
2022-10-05T08:41:01.873Z,11.07
2022-10-05T08:44:01.222Z,9.18
2022-10-05T08:46:32.075Z,5.20
2022-10-05T08:49:18.950Z,4.40
2022-10-05T08:52:24.392Z,4.18
2022-10-05T08:55:29.578Z,6.15
2022-10-05T08:58:22.641Z,7.22
2022-10-05T09:01:05.706Z,8.82
2022-10-05T09:04:04.379Z,8.40
2022-10-05T09:07:09.977Z,6.88
2022-10-05T09:09:50.331Z,5.30
2022-10-05T09:12:53.067Z,7.10
2022-10-05T09:16:00.519Z,9.15
2022-10-05T09:18:59.916Z,9.00
2022-10-05T09:21:46.171Z,6.95
2022-10-05T09:25:38.508Z,6.85
2022-10-05T09:28:28.202Z,10.52
2022-10-05T09:31:10.879Z,6.35
2022-10-05T09:34:29.192Z,8.82
2022-10-05T09:37:38.867Z,8.30
2022-10-05T09:41:02.184Z,12.10
2022-10-05T09:43:42.800Z,7.30
2022-10-05T09:46:48.787Z,11.85
2022-10-05T09:52:45.518Z,9.60
2022-10-05T09:55:39.471Z,6.00
2022-10-05T09:58:34.851Z,5.47
2022-10-05T10:01:34.368Z,7.32
2022-10-05T10:04:15.598Z,7.85
2022-10-05T10:07:07.824Z,7.72
2022-10-05T10:10:20.093Z,6.72
2022-10-05T10:13:00.761Z,7.30
2022-10-05T10:15:57.871Z,5.45
2022-10-05T10:21:55.816Z,7.70
2022-10-05T10:25:25.007Z,6.88
2022-10-05T10:28:21.418Z,5.72
2022-10-05T10:31:00.603Z,5.30
2022-10-05T10:33:48.749Z,6.93
2022-10-05T10:36:38.477Z,6.47
2022-10-05T10:39:20.591Z,4.88
2022-10-05T10:43:03.379Z,3.08
2022-10-05T10:46:02.635Z,5.03
2022-10-05T10:48:47.367Z,4.68
2022-10-05T10:51:33.806Z,3.55
2022-10-05T10:54:38.398Z,3.45
2022-10-05T10:58:34.417Z,5.50
2022-10-05T11:01:50.322Z,4.53
2022-10-05T11:04:55.436Z,3.42
2022-10-05T11:07:43.255Z,2.45
2022-10-05T11:11:11.191Z,4.25
2022-10-05T11:18:47.455Z,2.72
2022-10-05T11:21:41.593Z,3.30
2022-10-05T11:24:43.028Z,2.85
2022-10-05T11:27:41.085Z,2.47
2022-10-05T11:30:25.867Z,4.20
2022-10-05T11:33:29.870Z,2.53
2022-10-05T11:36:43.582Z,2.45
2022-10-05T11:39:40.024Z,4.00
2022-10-05T11:43:05.088Z,7.93
2022-10-05T11:45:57.754Z,4.38
2022-10-05T11:49:21.629Z,5.65
2022-10-05T11:52:23.914Z,2.55
2022-10-05T11:55:19.706Z,2.65
2022-10-05T11:58:13.010Z,3.55
2022-10-05T12:01:05.221Z,27.60
2022-10-05T12:04:15.446Z,4.75
2022-10-05T12:07:12.907Z,3.70
2022-10-05T12:10:11.760Z,3.28
2022-10-05T12:13:04.408Z,3.22
2022-10-05T12:15:48.218Z,4.70
2022-10-05T12:18:42.332Z,3.60
2022-10-05T12:21:38.833Z,5.38
2022-10-05T12:24:41.123Z,7.32
2022-10-05T12:27:42.938Z,4.65
2022-10-05T12:30:32.162Z,5.45
2022-10-05T12:33:13.204Z,3.25
2022-10-05T12:36:04.258Z,2.45
2022-10-05T12:38:45.560Z,3.90
2022-10-05T12:41:50.453Z,2.78
2022-10-05T12:44:40.192Z,4.55
2022-10-05T12:47:39.549Z,3.60
2022-10-05T12:50:28.394Z,2.45
2022-10-05T12:53:18.163Z,2.38
2022-10-05T12:55:53.586Z,2.92
2022-10-05T12:58:21.435Z,2.63
2022-10-05T13:01:08.888Z,4.05
2022-10-05T13:03:38.304Z,2.22
2022-10-05T13:06:15.780Z,2.70
2022-10-05T13:09:10.364Z,4.75
2022-10-05T13:11:49.672Z,2.47
2022-10-05T13:14:37.536Z,5.22
2022-10-05T13:17:12.423Z,3.47
2022-10-05T13:19:46.779Z,4.47
2022-10-05T13:22:51.920Z,2.40
2022-10-05T13:25:34.440Z,5.22
2022-10-05T13:28:02.637Z,3.97
2022-10-05T13:30:34.206Z,4.57
2022-10-05T13:33:22.065Z,1.30
2022-10-05T13:35:58.358Z,6.53
2022-10-05T13:38:30.776Z,2.88
2022-10-05T13:41:18.508Z,4.10
2022-10-05T13:44:03.323Z,2.30
2022-10-05T13:46:34.828Z,2.65
2022-10-05T13:49:39.843Z,4.50
2022-10-05T13:53:13.860Z,4.20
2022-10-05T13:56:40.210Z,2.88
2022-10-05T13:59:26.179Z,3.13
2022-10-05T14:02:01.000Z,3.65
2022-10-05T14:04:53.592Z,3.95
2022-10-05T14:07:34.296Z,5.60
2022-10-05T14:10:17.346Z,5.78
2022-10-05T14:12:54.153Z,5.10
2022-10-05T14:15:29.216Z,2.75
2022-10-05T14:17:59.702Z,5.80
2022-10-05T14:20:33.373Z,3.10
2022-10-05T14:23:26.913Z,6.22
2022-10-05T14:26:08.419Z,4.43
2022-10-05T14:28:48.315Z,4.75
2022-10-05T14:31:28.196Z,2.92
2022-10-05T14:34:50.987Z,3.10
2022-10-05T14:37:28.740Z,3.97
2022-10-05T14:40:04.446Z,2.75
2022-10-05T14:42:46.276Z,6.13
2022-10-05T14:45:19.096Z,5.65
2022-10-05T14:47:51.608Z,6.55
2022-10-05T14:50:26.424Z,4.43
2022-10-05T14:53:57.650Z,5.20
2022-10-05T14:57:01.190Z,4.10
2022-10-05T15:03:55.696Z,8.85
2022-10-05T15:30:36.117Z,5.82
2022-10-05T15:33:46.894Z,6.20
2022-10-05T15:40:43.297Z,3.90
2022-10-05T15:43:21.522Z,4.68
2022-10-05T15:46:40.043Z,5.85
2022-10-05T15:49:24.682Z,8.20
2022-10-05T15:52:25.558Z,3.90
2022-10-05T15:55:20.081Z,3.58
2022-10-05T15:58:14.221Z,5.15
2022-10-05T16:01:54.450Z,5.07
2022-10-05T16:04:38.264Z,5.15
2022-10-05T16:08:44.076Z,6.03
2022-10-05T16:16:18.320Z,6.68
2022-10-05T16:19:09.557Z,10.77
2022-10-05T16:21:58.187Z,10.55
2022-10-05T16:25:23.335Z,9.43
2022-10-05T16:28:32.785Z,14.85
2022-10-05T16:31:56.724Z,13.55
2022-10-05T16:38:59.379Z,17.92
2022-10-05T16:43:19.167Z,12.35
2022-10-05T16:46:33.568Z,10.88
2022-10-05T16:49:40.494Z,12.70
2022-10-05T16:52:21.522Z,8.47
2022-10-05T16:54:58.899Z,10.27
2022-10-05T16:57:30.382Z,15.65
2022-10-05T17:00:21.922Z,12.90
2022-10-05T17:03:34.703Z,12.75
2022-10-05T17:06:48.266Z,7.72
2022-10-05T17:09:26.273Z,7.43
2022-10-05T17:12:05.703Z,7.00
2022-10-05T17:15:00.588Z,5.53
2022-10-05T17:17:51.916Z,8.73
2022-10-05T17:20:29.814Z,13.18
2022-10-05T17:23:27.078Z,9.80
2022-10-05T17:26:28.382Z,7.53
2022-10-05T17:29:00.607Z,11.68
2022-10-05T17:31:29.144Z,10.55
2022-10-05T17:34:26.407Z,10.95
2022-10-05T17:37:00.775Z,15.60
2022-10-05T17:39:50.019Z,18.45
2022-10-05T17:42:47.862Z,17.05
2022-10-05T17:45:16.003Z,17.30
2022-10-05T17:47:59.103Z,15.15
2022-10-05T17:51:07.027Z,16.70
2022-10-05T17:54:06.680Z,13.38
2022-10-05T17:56:51.076Z,13.43
2022-10-05T17:59:58.590Z,17.27
2022-10-05T18:02:51.091Z,17.30
2022-10-05T18:05:28.128Z,16.52
2022-10-05T18:08:39.195Z,16.65
2022-10-05T18:11:17.484Z,15.88
2022-10-05T18:13:50.317Z,20.65
2022-10-05T18:17:10.879Z,19.25
2022-10-05T18:19:39.731Z,26.00
2022-10-05T18:22:16.790Z,19.40
2022-10-05T18:24:53.452Z,25.88
2022-10-05T18:27:35.666Z,24.80
2022-10-05T18:30:19.336Z,27.50
2022-10-05T18:32:51.153Z,29.88
2022-10-05T18:35:20.494Z,29.80
2022-10-05T18:38:04.555Z,25.05
2022-10-05T18:41:09.386Z,23.73
2022-10-05T18:44:03.582Z,28.58
2022-10-05T18:46:57.555Z,32.15
2022-10-05T18:49:57.305Z,48.78
2022-10-05T18:52:37.111Z,35.40
2022-10-05T18:55:21.221Z,30.40
2022-10-05T18:57:52.336Z,34.20
2022-10-05T19:00:21.939Z,35.20
2022-10-05T19:03:36.987Z,31.17
2022-10-05T19:06:28.264Z,33.28
2022-10-05T19:09:19.943Z,35.78
2022-10-05T19:12:01.008Z,45.25
2022-10-05T19:15:10.697Z,29.27
2022-10-05T19:18:21.887Z,35.50
2022-10-05T19:21:03.835Z,30.52
2022-10-05T19:24:13.439Z,31.83
2022-10-05T19:27:18.978Z,33.97
2022-10-05T19:30:33.182Z,39.95
2022-10-05T19:33:12.768Z,34.25
2022-10-05T19:36:31.272Z,29.80
2022-10-05T19:39:32.346Z,32.00
2022-10-05T19:42:18.781Z,33.03
2022-10-05T19:45:31.272Z,33.85
2022-10-05T19:48:25.041Z,31.05
2022-10-05T19:51:46.195Z,32.75
2022-10-05T19:54:48.480Z,31.40
2022-10-05T19:57:56.472Z,34.78
2022-10-05T20:00:31.418Z,35.00
2022-10-05T20:03:14.638Z,32.20
2022-10-05T20:10:38.455Z,31.27
2022-10-05T20:13:47.976Z,26.88
2022-10-05T20:16:45.897Z,24.27
2022-10-05T20:19:53.728Z,20.90
2022-10-05T20:24:25.550Z,25.58
2022-10-05T20:31:02.543Z,20.23
2022-10-05T20:33:48.596Z,20.73
2022-10-05T20:36:23.932Z,25.37
2022-10-05T20:39:33.083Z,23.17
2022-10-05T20:42:10.692Z,30.35
2022-10-05T20:49:29.565Z,26.83
2022-10-05T20:52:19.691Z,24.23
2022-10-05T20:55:41.288Z,27.38
2022-10-05T21:03:50.031Z,18.23
2022-10-05T21:17:49.862Z,22.75
2022-10-05T21:28:24.598Z,11.60
2022-10-05T21:30:56.143Z,11.02
2022-10-05T21:33:25.654Z,12.05
2022-10-05T21:35:53.925Z,9.57
2022-10-05T21:38:21.981Z,10.15
2022-10-05T21:40:49.877Z,13.70
2022-10-05T21:43:20.615Z,15.23
2022-10-05T21:45:48.880Z,12.50
2022-10-05T21:48:20.493Z,9.57
2022-10-05T21:50:49.289Z,12.82
2022-10-05T21:53:18.847Z,15.55
2022-10-05T21:55:48.631Z,10.73
2022-10-05T21:58:18.471Z,15.32
2022-10-05T22:00:47.814Z,13.13
2022-10-05T22:03:22.274Z,12.43
2022-10-05T22:05:51.603Z,14.80
2022-10-05T22:08:25.267Z,15.77
2022-10-05T22:10:56.629Z,15.63
2022-10-05T22:13:33.271Z,15.98
2022-10-05T22:16:03.294Z,12.90
2022-10-05T22:18:31.763Z,13.85
2022-10-05T22:21:08.073Z,15.40
2022-10-05T22:23:37.352Z,15.45
2022-10-05T22:26:08.911Z,18.05
2022-10-05T22:28:38.801Z,13.43
2022-10-05T22:31:07.387Z,13.13
2022-10-05T22:33:38.656Z,11.32
2022-10-05T22:36:07.390Z,14.30
2022-10-05T22:38:42.397Z,10.30
2022-10-05T22:41:12.879Z,11.38
2022-10-05T22:43:41.603Z,15.05
2022-10-05T22:46:21.459Z,14.07
2022-10-05T22:48:50.687Z,10.63
2022-10-05T22:51:22.513Z,11.45
2022-10-05T22:53:52.437Z,11.77
2022-10-05T22:56:21.453Z,9.95
2022-10-05T22:58:51.700Z,14.68
2022-10-05T23:01:20.455Z,11.52
2022-10-05T23:03:48.641Z,12.27
2022-10-05T23:06:18.680Z,12.68
2022-10-05T23:08:47.548Z,10.00
2022-10-05T23:11:23.956Z,11.40
2022-10-05T23:16:30.049Z,10.30
2022-10-05T23:18:58.676Z,9.70
2022-10-05T23:21:31.445Z,12.77
2022-10-05T23:24:06.780Z,15.35
2022-10-05T23:26:36.450Z,13.13
2022-10-05T23:29:06.596Z,18.85
2022-10-05T23:31:37.069Z,17.58
2022-10-05T23:34:05.029Z,17.17
2022-10-05T23:36:33.488Z,15.80
2022-10-05T23:39:03.331Z,20.05
2022-10-05T23:41:32.528Z,19.33
2022-10-05T23:44:00.188Z,18.75
2022-10-05T23:46:32.278Z,18.33
2022-10-05T23:49:00.895Z,20.27
2022-10-05T23:51:29.153Z,18.02
2022-10-05T23:53:57.282Z,19.88
2022-10-05T23:56:29.368Z,19.65
2022-10-05T23:58:58.406Z,17.30
